createdAt,value
2016-11-02T00:00:34.154Z,1013.8
2016-11-02T00:05:38.590Z,1013.7
2016-11-02T00:10:43.021Z,1013.8
2016-11-02T00:15:47.119Z,1013.7
2016-11-02T00:20:51.550Z,1013.6
2016-11-02T00:25:55.645Z,1013.5
2016-11-02T00:31:00.076Z,1013.5
2016-11-02T00:36:04.172Z,1013.6
2016-11-02T00:41:08.268Z,1013.5
2016-11-02T00:46:12.365Z,1013.5
2016-11-02T00:51:16.460Z,1013.3
2016-11-02T00:56:20.556Z,1013.2
2016-11-02T01:01:24.650Z,1013.2
2016-11-02T01:06:28.747Z,1013.2
2016-11-02T01:11:32.839Z,1013.2
2016-11-02T01:16:36.929Z,1013.2
2016-11-02T01:21:41.029Z,1013.2
2016-11-02T01:26:45.127Z,1013.2
2016-11-02T01:31:49.896Z,1013.2
2016-11-02T01:36:53.996Z,1013.1
2016-11-02T01:41:58.108Z,1013
2016-11-02T01:47:02.198Z,1013
2016-11-02T01:52:06.289Z,1012.9
2016-11-02T01:57:11.057Z,1013
2016-11-02T02:02:15.473Z,1013.2
2016-11-02T02:07:19.567Z,1012.9
2016-11-02T02:12:23.666Z,1012.6
2016-11-02T02:17:27.760Z,1012.6
2016-11-02T02:22:31.856Z,1012.6
2016-11-02T02:27:36.285Z,1012.7
2016-11-02T02:32:40.378Z,1012.7
2016-11-02T02:37:44.814Z,1012.8
2016-11-02T02:42:48.909Z,1012.9
2016-11-02T02:47:53.335Z,1012.7
2016-11-02T02:52:57.425Z,1012.5
2016-11-02T02:58:01.516Z,1012.5
2016-11-02T03:03:05.945Z,1012.6
2016-11-02T03:08:10.040Z,1012.6
2016-11-02T03:13:14.131Z,1012.5
2016-11-02T03:18:18.226Z,1012.5
2016-11-02T03:23:22.652Z,1012.4
2016-11-02T03:28:26.748Z,1012.3
2016-11-02T03:33:31.174Z,1012.3
2016-11-02T03:38:35.607Z,1012.3
2016-11-02T03:43:40.707Z,1012.2
2016-11-02T03:48:44.797Z,1012.1
2016-11-02T03:53:49.228Z,1012.1
2016-11-02T03:58:53.319Z,1012.2
2016-11-02T04:03:57.421Z,1012.1
2016-11-02T04:09:01.846Z,1012.1
2016-11-02T04:14:06.277Z,1012
2016-11-02T04:19:10.375Z,1011.9
2016-11-02T04:24:14.466Z,1011.9
2016-11-02T04:29:18.893Z,1012
2016-11-02T04:34:23.656Z,1011.8
2016-11-02T04:39:27.754Z,1011.7
2016-11-02T04:44:32.178Z,1011.9
2016-11-02T04:49:36.275Z,1012
2016-11-02T04:54:40.702Z,1011.8
2016-11-02T04:59:45.141Z,1011.6
2016-11-02T05:04:49.575Z,1011.5
2016-11-02T05:09:54.028Z,1011.4
2016-11-02T05:14:58.123Z,1011.4
2016-11-02T05:20:02.439Z,1011.4
2016-11-02T05:25:06.539Z,1011.4
2016-11-02T05:30:10.635Z,1011.4
2016-11-02T05:35:15.071Z,1011.4
2016-11-02T05:40:19.177Z,1011.4
2016-11-02T05:45:23.269Z,1011.4
2016-11-02T05:50:27.693Z,1011.3
2016-11-02T05:55:31.791Z,1011.4
2016-11-02T06:00:36.283Z,1011.4
2016-11-02T06:05:40.375Z,1011.3
2016-11-02T06:10:44.803Z,1011.3
2016-11-02T06:15:49.593Z,1011.3
2016-11-02T06:20:54.016Z,1011.3
2016-11-02T06:25:58.444Z,1011.5
2016-11-02T06:31:02.551Z,1011.6
2016-11-02T06:36:06.633Z,1011.7
2016-11-02T06:41:11.402Z,1011.6
2016-11-02T06:46:15.497Z,1011.7
2016-11-02T06:51:19.929Z,1011.7
2016-11-02T06:56:24.028Z,1011.6
2016-11-02T07:01:28.454Z,1011.6
2016-11-02T07:06:32.887Z,1011.6
2016-11-02T07:11:37.314Z,1011.5
2016-11-02T07:16:41.409Z,1011.6
2016-11-02T07:21:45.845Z,1011.6
2016-11-02T07:26:49.945Z,1011.7
2016-11-02T07:31:54.042Z,1011.6
2016-11-02T07:36:58.138Z,1011.7
2016-11-02T07:42:02.577Z,1011.7
2016-11-02T07:47:06.668Z,1011.8
2016-11-02T07:52:11.095Z,1011.8
2016-11-02T07:57:15.187Z,1011.8
2016-11-02T08:02:19.616Z,1012
2016-11-02T08:07:23.724Z,1012
2016-11-02T08:12:28.153Z,1012
2016-11-02T08:17:32.587Z,1011.9
2016-11-02T08:22:37.352Z,1011.8
2016-11-02T08:27:41.455Z,1011.8
2016-11-02T08:32:45.887Z,1011.8
2016-11-02T08:37:50.665Z,1011.8
2016-11-02T08:42:55.760Z,1011.8
2016-11-02T08:47:59.851Z,1011.9
2016-11-02T08:53:03.949Z,1011.9
2016-11-02T08:58:08.046Z,1011.9
2016-11-02T09:03:12.476Z,1011.8
2016-11-02T09:08:17.241Z,1011.7
2016-11-02T09:13:21.336Z,1011.8
2016-11-02T09:18:25.766Z,1011.7
2016-11-02T09:23:29.863Z,1011.7
2016-11-02T09:28:33.961Z,1011.6
2016-11-02T09:33:38.731Z,1011.7
2016-11-02T09:38:42.828Z,1011.7
2016-11-02T09:43:46.928Z,1011.8
2016-11-02T09:48:51.025Z,1011.9
2016-11-02T09:53:55.118Z,1012
2016-11-02T09:58:59.215Z,1012.1
2016-11-02T10:04:03.315Z,1012
2016-11-02T10:09:07.410Z,1011.9
2016-11-02T10:14:11.841Z,1011.9
2016-11-02T10:19:15.937Z,1011.9
2016-11-02T10:24:20.039Z,1011.9
2016-11-02T10:29:24.134Z,1011.9
2016-11-02T10:34:28.230Z,1011.8
2016-11-02T10:39:32.654Z,1011.8
2016-11-02T10:44:38.088Z,1011.8
2016-11-02T10:49:42.518Z,1011.8
2016-11-02T10:54:46.617Z,1011.8
2016-11-02T10:59:50.841Z,1011.9
2016-11-02T11:04:55.609Z,1011.8
2016-11-02T11:09:59.703Z,1011.7
2016-11-02T11:15:03.809Z,1011.6
2016-11-02T11:20:07.905Z,1011.5
2016-11-02T11:25:12.675Z,1011.5
2016-11-02T11:30:17.104Z,1011.5
2016-11-02T11:35:21.533Z,1011.5
2016-11-02T11:40:26.638Z,1011.4
2016-11-02T11:45:30.735Z,1011.5
2016-11-02T11:50:35.173Z,1011.5
2016-11-02T11:55:39.613Z,1011.5
2016-11-02T12:00:44.045Z,1011.4
2016-11-02T12:05:48.633Z,1011.5
2016-11-02T12:10:52.724Z,1011.4
2016-11-02T12:15:56.823Z,1011.5
2016-11-02T12:21:00.920Z,1011.4
2016-11-02T12:26:05.375Z,1011.4
2016-11-02T12:31:09.794Z,1011.7
2016-11-02T12:36:13.890Z,1011.7
2016-11-02T12:41:18.322Z,1011.5
2016-11-02T12:46:22.760Z,1011.6
2016-11-02T12:51:26.851Z,1011.6
2016-11-02T12:56:30.953Z,1011.7
2016-11-02T13:01:35.405Z,1011.7
2016-11-02T13:06:39.841Z,1011.7
2016-11-02T13:11:43.951Z,1011.8
2016-11-02T13:16:48.402Z,1011.8
2016-11-02T13:21:53.206Z,1011.8
2016-11-02T13:26:57.639Z,1012
2016-11-02T13:32:02.736Z,1012
2016-11-02T13:37:07.177Z,1012.1
2016-11-02T13:42:11.379Z,1012.2
2016-11-02T13:47:15.592Z,1012.2
2016-11-02T13:52:19.720Z,1012.3
2016-11-02T13:57:24.834Z,1012.4
2016-11-02T14:02:29.620Z,1012.5
2016-11-02T14:07:34.051Z,1012.6
2016-11-02T14:12:38.482Z,1012.7
2016-11-02T14:17:42.955Z,1012.8
2016-11-02T14:22:47.385Z,1012.8
2016-11-02T14:27:51.561Z,1012.9
2016-11-02T14:32:56.060Z,1013
2016-11-02T14:38:00.161Z,1013.1
2016-11-02T14:43:04.249Z,1013.1
2016-11-02T14:48:08.355Z,1013.3
2016-11-02T14:53:12.460Z,1013.3
2016-11-02T14:58:16.550Z,1013.4
2016-11-02T15:03:20.672Z,1013.5
2016-11-02T15:08:25.106Z,1013.6
2016-11-02T15:13:29.378Z,1013.6
2016-11-02T15:18:33.473Z,1013.6
2016-11-02T15:23:38.238Z,1013.8
2016-11-02T15:28:43.013Z,1013.8
2016-11-02T15:33:47.441Z,1013.9
2016-11-02T15:38:51.817Z,1013.9
2016-11-02T15:43:55.907Z,1014.1
2016-11-02T15:49:00.033Z,1014.2
2016-11-02T15:54:04.447Z,1014.2
2016-11-02T15:59:08.544Z,1014.3
2016-11-02T16:04:13.311Z,1014.3
2016-11-02T16:09:17.402Z,1014.4
2016-11-02T16:14:21.901Z,1014.5
2016-11-02T16:19:25.986Z,1014.6
2016-11-02T16:24:30.074Z,1014.7
2016-11-02T16:29:34.167Z,1014.7
2016-11-02T16:34:38.464Z,1014.7
2016-11-02T16:39:42.585Z,1014.8
2016-11-02T16:44:47.012Z,1014.9
2016-11-02T16:49:51.104Z,1014.9
2016-11-02T16:54:55.540Z,1015
2016-11-02T16:59:59.998Z,1015.1
2016-11-02T17:05:04.131Z,1015.1
2016-11-02T17:10:08.243Z,1015.2
2016-11-02T17:15:12.339Z,1015.3
2016-11-02T17:20:16.687Z,1015.4
2016-11-02T17:25:20.782Z,1015.4
2016-11-02T17:30:24.867Z,1015.5
2016-11-02T17:35:29.302Z,1015.5
2016-11-02T17:40:33.389Z,1015.6
2016-11-02T17:45:38.165Z,1015.6
2016-11-02T17:50:42.370Z,1015.7
2016-11-02T17:55:46.914Z,1015.8
2016-11-02T18:00:51.003Z,1015.9
2016-11-02T18:05:55.431Z,1016
2016-11-02T18:11:00.527Z,1016
2016-11-02T18:16:04.959Z,1016
2016-11-02T18:21:09.387Z,1016
2016-11-02T18:26:13.810Z,1016.1
2016-11-02T18:31:17.904Z,1016.2
2016-11-02T18:36:21.995Z,1016.2
2016-11-02T18:41:26.420Z,1016.3
2016-11-02T18:46:30.512Z,1016.3
2016-11-02T18:51:34.939Z,1016.4
2016-11-02T18:56:39.036Z,1016.5
2016-11-02T19:01:43.129Z,1016.6
2016-11-02T19:06:47.562Z,1016.6
2016-11-02T19:11:51.666Z,1016.6
2016-11-02T19:16:56.108Z,1016.7
2016-11-02T19:22:00.537Z,1016.7
2016-11-02T19:27:04.964Z,1016.8
2016-11-02T19:32:09.399Z,1016.8
2016-11-02T19:37:13.831Z,1016.9
2016-11-02T19:42:17.929Z,1016.9
2016-11-02T19:47:22.022Z,1016.9
2016-11-02T19:52:26.796Z,1017
2016-11-02T19:57:31.226Z,1017.1
2016-11-02T20:02:35.320Z,1017.2
2016-11-02T20:07:39.406Z,1017.2
2016-11-02T20:12:43.776Z,1017.3
2016-11-02T20:17:48.205Z,1017.4
2016-11-02T20:22:52.314Z,1017.4
2016-11-02T20:27:56.745Z,1017.4
2016-11-02T20:33:00.832Z,1017.5
2016-11-02T20:38:05.264Z,1017.6
2016-11-02T20:43:09.689Z,1017.6
2016-11-02T20:48:14.784Z,1017.7
2016-11-02T20:53:18.872Z,1017.8
2016-11-02T20:58:23.293Z,1017.8
2016-11-02T21:03:27.384Z,1017.8
2016-11-02T21:08:31.478Z,1017.8
2016-11-02T21:13:35.908Z,1017.9
2016-11-02T21:18:40.405Z,1017.8
2016-11-02T21:23:44.833Z,1017.8
2016-11-02T21:28:48.947Z,1017.9
2016-11-02T21:33:53.393Z,1017.9
2016-11-02T21:38:57.485Z,1017.9
2016-11-02T21:44:01.916Z,1018
2016-11-02T21:49:07.017Z,1018
2016-11-02T21:54:11.448Z,1018
2016-11-02T21:59:15.996Z,1018.1
2016-11-02T22:04:20.461Z,1018.1
2016-11-02T22:09:24.902Z,1018.2
2016-11-02T22:14:29.340Z,1018.2
2016-11-02T22:19:33.435Z,1018.2
2016-11-02T22:24:38.200Z,1018.3
2016-11-02T22:29:42.631Z,1018.3
2016-11-02T22:34:47.728Z,1018.4
2016-11-02T22:39:51.831Z,1018.5
2016-11-02T22:44:56.595Z,1018.5
2016-11-02T22:50:01.026Z,1018.6
2016-11-02T22:55:05.120Z,1018.6
2016-11-02T23:00:09.560Z,1018.7
2016-11-02T23:05:13.984Z,1018.7
2016-11-02T23:10:18.075Z,1018.9
2016-11-02T23:15:22.172Z,1018.8
2016-11-02T23:20:26.934Z,1018.8
2016-11-02T23:25:31.363Z,1018.8
2016-11-02T23:30:35.793Z,1018.8
2016-11-02T23:35:39.891Z,1018.9
2016-11-02T23:40:44.312Z,1018.9
2016-11-02T23:45:48.404Z,1019
2016-11-02T23:50:52.494Z,1019
2016-11-02T23:55:56.582Z,1019
